createdAt,value
2016-10-29T10:03:34.326Z,140
2016-10-29T10:04:48.031Z,3035
2016-10-29T10:06:01.741Z,3320
2016-10-29T10:07:14.175Z,3855
2016-10-29T10:08:57.450Z,4665
2016-10-29T10:10:09.887Z,3930
2016-10-29T10:11:19.763Z,4725
2016-10-29T10:12:33.489Z,4550
2016-10-29T10:13:44.607Z,4700
2016-10-29T10:14:57.059Z,3830
2016-10-29T10:16:10.768Z,3860
2016-10-29T10:17:23.206Z,4560
2016-10-29T10:18:35.632Z,4475
2016-10-29T10:19:49.346Z,4365
2016-10-29T10:21:03.037Z,4575
2016-10-29T10:22:16.775Z,4535
2016-10-29T10:23:30.489Z,3735
2016-10-29T10:24:44.196Z,4580
2016-10-29T10:25:57.914Z,4380
2016-10-29T10:27:11.638Z,4360
2016-10-29T10:28:24.039Z,4255
2016-10-29T10:29:36.478Z,4180
2016-10-29T10:30:50.172Z,4265
2016-10-29T10:32:01.295Z,4295
2016-10-29T10:33:15.008Z,4215
2016-10-29T10:34:27.486Z,4415
2016-10-29T10:35:41.249Z,3825
2016-10-29T10:36:54.948Z,3710
2016-10-29T10:38:06.070Z,4100
2016-10-29T10:39:19.766Z,4115
2016-10-29T10:40:33.481Z,4290
2016-10-29T10:41:45.941Z,4585
2016-10-29T10:42:59.636Z,4475
2016-10-29T10:44:12.099Z,4455
2016-10-29T10:45:24.501Z,4355
2016-10-29T10:46:38.203Z,4300
2016-10-29T10:47:51.907Z,4200
2016-10-29T10:49:05.606Z,4065
2016-10-29T10:50:19.308Z,3850
2016-10-29T10:51:33.061Z,3970
2016-10-29T10:52:46.787Z,4285
2016-10-29T10:54:00.524Z,4225
2016-10-29T10:55:12.952Z,4285
2016-10-29T10:56:25.503Z,4350
2016-10-29T10:57:39.292Z,4295
2016-10-29T10:58:52.994Z,4345
2016-10-29T11:00:06.713Z,4290
2016-10-29T11:01:17.900Z,4360
2016-10-29T11:02:30.345Z,4340
2016-10-29T11:03:43.042Z,4380
2016-10-29T11:04:56.851Z,4405
2016-10-29T11:06:10.548Z,2915
2016-10-29T11:07:22.977Z,2020
2016-10-29T11:08:35.450Z,2195
2016-10-29T11:09:49.172Z,2095
2016-10-29T11:11:02.957Z,2385
2016-10-29T11:12:16.648Z,2895
2016-10-29T11:13:29.234Z,2470
2016-10-29T11:14:42.992Z,2080
2016-10-29T11:15:56.709Z,3585
2016-10-29T11:17:10.422Z,4300
2016-10-29T11:18:24.132Z,4285
2016-10-29T11:19:37.867Z,4260
2016-10-29T11:20:50.311Z,4185
2016-10-29T11:22:04.056Z,4115
2016-10-29T11:23:16.465Z,4070
2016-10-29T11:24:29.106Z,4140
2016-10-29T11:25:40.240Z,4125
2016-10-29T11:26:52.814Z,4050
2016-10-29T11:28:06.529Z,4110
2016-10-29T11:29:18.940Z,4135
2016-10-29T11:30:32.673Z,4140
2016-10-29T11:31:46.368Z,4200
2016-10-29T11:33:00.347Z,4255
2016-10-29T11:34:14.094Z,4260
2016-10-29T11:35:28.053Z,4165
2016-10-29T11:36:41.796Z,4735
2016-10-29T11:39:16.887Z,570
2016-10-29T11:40:39.974Z,3485
2016-10-29T11:41:55.207Z,5450
2016-10-29T11:43:10.379Z,4845
2016-10-29T11:44:23.130Z,3390
2016-10-29T11:45:38.347Z,3480
2016-10-29T11:46:53.761Z,4135
2016-10-29T11:48:08.923Z,2750
2016-10-29T11:49:21.587Z,2245
2016-10-29T11:50:36.763Z,3340
2016-10-29T11:51:50.656Z,5005
2016-10-29T11:53:06.096Z,3090
2016-10-29T11:54:20.034Z,4755
2016-10-29T11:55:33.771Z,1930
2016-10-29T11:56:46.218Z,3325
2016-10-29T11:58:00.259Z,5655
2016-10-29T11:59:12.683Z,3615
2016-10-29T12:00:25.192Z,4250
2016-10-29T12:01:38.919Z,2935
2016-10-29T12:02:51.323Z,5365
2016-10-29T12:04:03.725Z,1870
2016-10-29T12:05:17.436Z,2880
2016-10-29T12:06:28.693Z,3550
2016-10-29T12:07:42.383Z,2055
2016-10-29T12:08:56.132Z,1595
2016-10-29T12:10:09.861Z,2115
2016-10-29T12:11:23.843Z,1805
2016-10-29T12:12:37.615Z,5045
2016-10-29T12:13:51.335Z,4945
2016-10-29T12:15:05.062Z,4870
2016-10-29T12:16:18.777Z,4880
2016-10-29T12:17:32.519Z,4855
2016-10-29T12:18:46.226Z,4735
2016-10-29T12:19:58.726Z,4780
2016-10-29T12:21:12.438Z,4740
2016-10-29T12:22:24.880Z,3855
2016-10-29T12:23:38.629Z,4735
2016-10-29T12:24:52.359Z,4730
2016-10-29T12:26:06.244Z,4740
2016-10-29T12:27:19.978Z,4710
2016-10-29T12:28:33.686Z,4700
2016-10-29T12:29:47.418Z,4675
2016-10-29T12:30:59.868Z,4650
2016-10-29T12:32:12.313Z,4630
2016-10-29T12:33:26.016Z,4605
2016-10-29T12:34:38.513Z,4540
2016-10-29T12:35:52.233Z,4550
2016-10-29T12:37:04.688Z,4505
2016-10-29T12:38:18.393Z,4565
2016-10-29T12:39:32.153Z,3915
2016-10-29T12:40:44.604Z,4250
2016-10-29T12:41:57.036Z,4455
2016-10-29T12:43:09.453Z,4505
2016-10-29T12:44:23.209Z,4430
2016-10-29T12:45:35.654Z,4220
2016-10-29T12:46:48.099Z,4270
2016-10-29T12:48:01.844Z,4395
2016-10-29T12:49:15.562Z,4465
2016-10-29T12:50:28.064Z,4410
2016-10-29T12:51:40.520Z,4460
2016-10-29T12:52:54.232Z,4555
2016-10-29T12:54:39.040Z,4570
2016-10-29T12:55:52.738Z,4530
2016-10-29T12:57:05.169Z,4335
2016-10-29T12:58:17.608Z,4190
2016-10-29T12:59:30.023Z,2865
2016-10-29T13:00:42.463Z,1495
2016-10-29T13:01:53.662Z,1235
2016-10-29T13:03:07.423Z,1160
2016-10-29T13:04:18.585Z,1280
2016-10-29T13:05:31.021Z,1275
2016-10-29T13:06:42.190Z,945
2016-10-29T13:07:55.875Z,1450
2016-10-29T13:09:08.299Z,1100
2016-10-29T13:10:20.751Z,1070
2016-10-29T13:11:34.461Z,980
2016-10-29T13:12:46.886Z,945
2016-10-29T13:14:00.574Z,920
2016-10-29T13:15:13.003Z,925
2016-10-29T13:16:26.803Z,895
2016-10-29T13:17:40.506Z,955
2016-10-29T13:18:54.267Z,1020
2016-10-29T13:20:07.999Z,1070
2016-10-29T13:21:20.420Z,1030
2016-10-29T13:22:34.152Z,950
2016-10-29T13:23:44.010Z,910
2016-10-29T13:24:56.435Z,985
2016-10-29T13:26:08.850Z,1235
2016-10-29T13:27:22.601Z,905
2016-10-29T13:28:36.311Z,815
2016-10-29T13:29:48.712Z,845
2016-10-29T13:31:02.467Z,835
2016-10-29T13:32:14.864Z,830
2016-10-29T13:33:27.273Z,780
2016-10-29T13:34:39.793Z,680
2016-10-29T13:35:53.575Z,490
2016-10-29T13:37:07.306Z,440
2016-10-29T13:38:21.031Z,425
2016-10-29T13:39:33.444Z,355
2016-10-29T13:40:47.213Z,235
2016-10-29T13:42:00.964Z,185
2016-10-29T13:43:14.685Z,150
2016-10-29T13:44:28.430Z,135
2016-10-29T13:45:42.285Z,135
2016-10-29T13:46:54.786Z,130
2016-10-29T13:48:08.487Z,110
2016-10-29T13:49:22.214Z,100
2016-10-29T13:50:35.925Z,105
